sensor_id;sensor_type;location;lat;lon;timestamp;pressure;altitude;pressure_sealevel;temperature;humidity
70902;BME280;58548;47.210;8.618;2023-06-14T00:01:19;93539.59;;;23.00;25.88
70902;BME280;58548;47.210;8.618;2023-06-14T00:03:48;93566.44;;;23.04;25.34
70902;BME280;58548;47.210;8.618;2023-06-14T00:06:15;93590.91;;;23.11;25.81
70902;BME280;58548;47.210;8.618;2023-06-14T00:08:41;93551.00;;;22.77;25.96
70902;BME280;58548;47.210;8.618;2023-06-14T00:11:07;93542.06;;;22.62;26.31
70902;BME280;58548;47.210;8.618;2023-06-14T00:13:36;93580.75;;;22.84;26.23
70902;BME280;58548;47.210;8.618;2023-06-14T00:16:01;93551.66;;;22.58;26.29
70902;BME280;58548;47.210;8.618;2023-06-14T00:18:30;93558.59;;;22.54;26.36
70902;BME280;58548;47.210;8.618;2023-06-14T00:20:58;93540.84;;;22.39;26.17
70902;BME280;58548;47.210;8.618;2023-06-14T00:23:24;93550.19;;;22.36;26.72
70902;BME280;58548;47.210;8.618;2023-06-14T00:25:52;93563.47;;;22.41;26.63
70902;BME280;58548;47.210;8.618;2023-06-14T00:28:20;93550.22;;;22.31;26.91
70902;BME280;58548;47.210;8.618;2023-06-14T00:30:48;93535.97;;;22.17;26.46
70902;BME280;58548;47.210;8.618;2023-06-14T00:33:16;93535.97;;;22.17;26.52
70902;BME280;58548;47.210;8.618;2023-06-14T00:35:47;93565.94;;;22.27;26.45
70902;BME280;58548;47.210;8.618;2023-06-14T00:38:15;93543.97;;;22.11;26.88
70902;BME280;58548;47.210;8.618;2023-06-14T00:40:43;93518.78;;;21.98;26.95
70902;BME280;58548;47.210;8.618;2023-06-14T00:43:09;93510.34;;;21.86;27.64
70902;BME280;58548;47.210;8.618;2023-06-14T00:45:35;93485.47;;;21.66;27.17
70902;BME280;58548;47.210;8.618;2023-06-14T00:48:02;93574.78;;;22.18;27.34
70902;BME280;58548;47.210;8.618;2023-06-14T00:50:30;93576.91;;;22.16;27.07
70902;BME280;58548;47.210;8.618;2023-06-14T00:53:01;93565.53;;;22.05;27.09
70902;BME280;58548;47.210;8.618;2023-06-14T00:55:27;93575.66;;;21.97;26.89
70902;BME280;58548;47.210;8.618;2023-06-14T00:57:56;93565.88;;;21.88;27.70
70902;BME280;58548;47.210;8.618;2023-06-14T01:00:24;93554.28;;;21.63;27.93
70902;BME280;58548;47.210;8.618;2023-06-14T01:02:53;93543.94;;;21.61;28.06
70902;BME280;58548;47.210;8.618;2023-06-14T01:05:19;93549.50;;;21.60;27.19
70902;BME280;58548;47.210;8.618;2023-06-14T01:11:02;93570.22;;;21.58;27.97
70902;BME280;58548;47.210;8.618;2023-06-14T01:13:43;93567.59;;;21.47;27.49
70902;BME280;58548;47.210;8.618;2023-06-14T01:16:14;93554.88;;;21.34;28.20
70902;BME280;58548;47.210;8.618;2023-06-14T01:18:41;93569.19;;;21.43;28.71
70902;BME280;58548;47.210;8.618;2023-06-14T01:21:27;93520.44;;;21.08;28.69
70902;BME280;58548;47.210;8.618;2023-06-14T01:23:56;93539.00;;;21.13;28.57
70902;BME280;58548;47.210;8.618;2023-06-14T01:26:23;93564.44;;;21.30;28.11
70902;BME280;58548;47.210;8.618;2023-06-14T01:28:50;93533.97;;;21.01;28.38
70902;BME280;58548;47.210;8.618;2023-06-14T01:31:20;93536.88;;;21.00;28.47
70902;BME280;58548;47.210;8.618;2023-06-14T01:33:50;93570.88;;;21.18;28.39
70902;BME280;58548;47.210;8.618;2023-06-14T01:36:19;93563.97;;;21.17;28.35
70902;BME280;58548;47.210;8.618;2023-06-14T01:38:50;93549.09;;;21.01;28.79
70902;BME280;58548;47.210;8.618;2023-06-14T01:41:22;93539.56;;;20.89;28.79
70902;BME280;58548;47.210;8.618;2023-06-14T01:43:51;93569.56;;;21.05;29.38
70902;BME280;58548;47.210;8.618;2023-06-14T01:46:20;93560.00;;;20.94;29.10
70902;BME280;58548;47.210;8.618;2023-06-14T01:48:51;93560.25;;;20.98;28.86
70902;BME280;58548;47.210;8.618;2023-06-14T01:51:19;93569.00;;;20.93;29.78
70902;BME280;58548;47.210;8.618;2023-06-14T01:53:45;93536.38;;;20.72;29.86
70902;BME280;58548;47.210;8.618;2023-06-14T01:56:12;93544.06;;;20.68;29.74
70902;BME280;58548;47.210;8.618;2023-06-14T01:58:38;93537.72;;;20.64;29.49
70902;BME280;58548;47.210;8.618;2023-06-14T02:01:05;93567.16;;;20.78;29.60
70902;BME280;58548;47.210;8.618;2023-06-14T02:03:31;93511.19;;;20.38;30.08
70902;BME280;58548;47.210;8.618;2023-06-14T02:05:56;93561.31;;;20.71;30.04
70902;BME280;58548;47.210;8.618;2023-06-14T02:08:24;93565.03;;;20.70;30.54
70902;BME280;58548;47.210;8.618;2023-06-14T02:10:53;93566.63;;;20.66;30.20
70902;BME280;58548;47.210;8.618;2023-06-14T02:13:21;93570.84;;;20.61;29.79
70902;BME280;58548;47.210;8.618;2023-06-14T02:15:49;93512.50;;;20.25;29.79
70902;BME280;58548;47.210;8.618;2023-06-14T02:18:21;93538.47;;;20.39;29.81
70902;BME280;58548;47.210;8.618;2023-06-14T02:20:49;93517.75;;;20.15;30.22
70902;BME280;58548;47.210;8.618;2023-06-14T02:23:19;93553.59;;;20.33;30.02
70902;BME280;58548;47.210;8.618;2023-06-14T02:25:45;93547.50;;;20.27;30.20
70902;BME280;58548;47.210;8.618;2023-06-14T02:28:11;93576.94;;;20.36;30.76
70902;BME280;58548;47.210;8.618;2023-06-14T02:30:40;93566.06;;;20.32;30.38
70902;BME280;58548;47.210;8.618;2023-06-14T02:33:06;93533.66;;;20.04;30.68
70902;BME280;58548;47.210;8.618;2023-06-14T02:35:37;93465.69;;;19.57;30.96
70902;BME280;58548;47.210;8.618;2023-06-14T02:38:04;93555.94;;;20.14;31.33
70902;BME280;58548;47.210;8.618;2023-06-14T02:40:32;93568.13;;;20.15;30.80
70902;BME280;58548;47.210;8.618;2023-06-14T02:43:00;93545.03;;;19.95;30.66
70902;BME280;58548;47.210;8.618;2023-06-14T02:45:26;93533.59;;;19.84;30.75
70902;BME280;58548;47.210;8.618;2023-06-14T02:47:51;93567.59;;;20.02;30.45
70902;BME280;58548;47.210;8.618;2023-06-14T02:50:17;93555.31;;;19.86;30.84
70902;BME280;58548;47.210;8.618;2023-06-14T02:52:44;93553.19;;;19.83;30.75
70902;BME280;58548;47.210;8.618;2023-06-14T02:55:13;93548.91;;;19.77;29.93
70902;BME280;58548;47.210;8.618;2023-06-14T02:57:41;93577.09;;;19.88;30.52
70902;BME280;58548;47.210;8.618;2023-06-14T03:00:08;93542.78;;;19.66;30.93
70902;BME280;58548;47.210;8.618;2023-06-14T03:02:38;93533.50;;;19.58;31.01
70902;BME280;58548;47.210;8.618;2023-06-14T03:05:04;93544.63;;;19.60;30.81
70902;BME280;58548;47.210;8.618;2023-06-14T03:07:32;93554.19;;;19.66;30.84
70902;BME280;58548;47.210;8.618;2023-06-14T03:10:00;93580.22;;;19.85;31.30
70902;BME280;58548;47.210;8.618;2023-06-14T03:12:30;93558.97;;;19.69;31.14
70902;BME280;58548;47.210;8.618;2023-06-14T03:14:56;93541.16;;;19.54;30.87
70902;BME280;58548;47.210;8.618;2023-06-14T03:17:22;93575.38;;;19.66;31.33
70902;BME280;58548;47.210;8.618;2023-06-14T03:19:49;93584.41;;;19.76;30.67
70902;BME280;58548;47.210;8.618;2023-06-14T03:22:16;93574.81;;;19.59;30.88
70902;BME280;58548;47.210;8.618;2023-06-14T03:24:41;93587.56;;;19.62;30.55
70902;BME280;58548;47.210;8.618;2023-06-14T03:27:08;93601.84;;;19.61;30.34
70902;BME280;58548;47.210;8.618;2023-06-14T03:29:35;93591.19;;;19.46;30.38
70902;BME280;58548;47.210;8.618;2023-06-14T03:32:04;93589.00;;;19.37;30.62
70902;BME280;58548;47.210;8.618;2023-06-14T03:34:32;93604.16;;;19.47;30.43
70902;BME280;58548;47.210;8.618;2023-06-14T03:37:03;93596.69;;;19.39;30.53
70902;BME280;58548;47.210;8.618;2023-06-14T03:39:29;93570.44;;;19.32;30.25
70902;BME280;58548;47.210;8.618;2023-06-14T03:41:54;93606.59;;;19.59;30.73
70902;BME280;58548;47.210;8.618;2023-06-14T03:44:23;93550.25;;;19.16;30.29
70902;BME280;58548;47.210;8.618;2023-06-14T03:46:48;93609.22;;;19.49;30.11
70902;BME280;58548;47.210;8.618;2023-06-14T03:49:17;93588.44;;;19.30;30.80
70902;BME280;58548;47.210;8.618;2023-06-14T03:51:43;93608.59;;;19.36;31.33
70902;BME280;58548;47.210;8.618;2023-06-14T03:54:11;93603.84;;;19.38;31.34
70902;BME280;58548;47.210;8.618;2023-06-14T03:56:37;93604.94;;;19.42;31.12
70902;BME280;58548;47.210;8.618;2023-06-14T03:59:03;93579.13;;;19.22;31.54
70902;BME280;58548;47.210;8.618;2023-06-14T04:01:29;93604.34;;;19.35;30.89
70902;BME280;58548;47.210;8.618;2023-06-14T04:03:56;93618.72;;;19.44;31.36
70902;BME280;58548;47.210;8.618;2023-06-14T04:06:23;93623.47;;;19.42;31.40
70902;BME280;58548;47.210;8.618;2023-06-14T04:08:51;93601.13;;;19.28;31.99
70902;BME280;58548;47.210;8.618;2023-06-14T04:11:17;93589.97;;;19.21;31.78
70902;BME280;58548;47.210;8.618;2023-06-14T04:13:44;93605.38;;;19.29;31.28
70902;BME280;58548;47.210;8.618;2023-06-14T04:16:10;93633.78;;;19.44;31.11
70902;BME280;58548;47.210;8.618;2023-06-14T04:18:39;93602.94;;;19.22;30.86
70902;BME280;58548;47.210;8.618;2023-06-14T04:21:07;93587.78;;;19.12;31.24
70902;BME280;58548;47.210;8.618;2023-06-14T04:23:36;93618.38;;;19.31;31.82
70902;BME280;58548;47.210;8.618;2023-06-14T04:26:06;93638.06;;;19.50;31.77
70902;BME280;58548;47.210;8.618;2023-06-14T04:28:32;93611.00;;;19.38;31.72
70902;BME280;58548;47.210;8.618;2023-06-14T04:31:02;93632.00;;;19.55;31.97
70902;BME280;58548;47.210;8.618;2023-06-14T04:33:28;93619.25;;;19.47;32.00
70902;BME280;58548;47.210;8.618;2023-06-14T04:35:59;93645.84;;;19.67;31.77
70902;BME280;58548;47.210;8.618;2023-06-14T04:38:30;93658.63;;;19.81;32.51
70902;BME280;58548;47.210;8.618;2023-06-14T04:41:00;93621.44;;;19.60;32.68
70902;BME280;58548;47.210;8.618;2023-06-14T04:43:31;93609.25;;;19.59;31.78
70902;BME280;58548;47.210;8.618;2023-06-14T04:46:10;93621.00;;;19.79;32.29
70902;BME280;58548;47.210;8.618;2023-06-14T04:48:39;93661.97;;;20.09;32.64
70902;BME280;58548;47.210;8.618;2023-06-14T04:51:12;93659.84;;;20.11;31.69
70902;BME280;58548;47.210;8.618;2023-06-14T04:53:38;93662.00;;;20.24;31.41
70902;BME280;58548;47.210;8.618;2023-06-14T04:56:04;93668.94;;;20.30;31.05
70902;BME280;58548;47.210;8.618;2023-06-14T04:58:30;93643.19;;;20.21;31.13
70902;BME280;58548;47.210;8.618;2023-06-14T05:00:57;93670.31;;;20.43;31.17
70902;BME280;58548;47.210;8.618;2023-06-14T05:03:27;93641.34;;;20.26;30.81
70902;BME280;58548;47.210;8.618;2023-06-14T05:05:55;93661.03;;;20.46;31.23
70902;BME280;58548;47.210;8.618;2023-06-14T05:08:23;93666.34;;;20.61;31.25
70902;BME280;58548;47.210;8.618;2023-06-14T05:10:50;93640.34;;;20.48;31.35
70902;BME280;58548;47.210;8.618;2023-06-14T05:13:20;93656.28;;;20.63;31.58
70902;BME280;58548;47.210;8.618;2023-06-14T05:15:48;93646.75;;;20.68;31.28
70902;BME280;58548;47.210;8.618;2023-06-14T05:18:14;93621.50;;;20.55;31.19
70902;BME280;58548;47.210;8.618;2023-06-14T05:20:41;93672.78;;;21.02;31.55
70902;BME280;58548;47.210;8.618;2023-06-14T05:23:14;93683.44;;;21.12;31.60
70902;BME280;58548;47.210;8.618;2023-06-14T05:25:45;93679.69;;;21.23;31.12
70902;BME280;58548;47.210;8.618;2023-06-14T05:28:13;93679.72;;;21.34;30.30
70902;BME280;58548;47.210;8.618;2023-06-14T05:30:40;93660.06;;;21.30;30.31
70902;BME280;58548;47.210;8.618;2023-06-14T05:33:10;93689.78;;;21.68;30.36
70902;BME280;58548;47.210;8.618;2023-06-14T05:35:36;93682.28;;;21.91;29.75
70902;BME280;58548;47.210;8.618;2023-06-14T05:38:03;93661.56;;;21.93;29.66
70902;BME280;58548;47.210;8.618;2023-06-14T05:40:29;93659.09;;;22.12;29.62
70902;BME280;58548;47.210;8.618;2023-06-14T05:42:55;93672.53;;;22.41;28.73
70902;BME280;58548;47.210;8.618;2023-06-14T05:45:21;93681.41;;;22.77;29.32
70902;BME280;58548;47.210;8.618;2023-06-14T05:47:50;93683.06;;;23.07;28.60
70902;BME280;58548;47.210;8.618;2023-06-14T05:50:19;93658.19;;;23.27;28.02
70902;BME280;58548;47.210;8.618;2023-06-14T05:52:47;93668.91;;;23.76;27.78
70902;BME280;58548;47.210;8.618;2023-06-14T05:55:13;93694.44;;;24.36;27.78
70902;BME280;58548;47.210;8.618;2023-06-14T05:57:39;93669.56;;;24.60;26.43
70902;BME280;58548;47.210;8.618;2023-06-14T06:00:10;93695.00;;;25.14;25.79
70902;BME280;58548;47.210;8.618;2023-06-14T06:02:41;93698.72;;;25.52;25.18
70902;BME280;58548;47.210;8.618;2023-06-14T06:05:11;93684.31;;;25.81;24.95
70902;BME280;58548;47.210;8.618;2023-06-14T06:07:38;93680.41;;;26.20;24.35
70902;BME280;58548;47.210;8.618;2023-06-14T06:10:06;93697.47;;;26.75;23.98
70902;BME280;58548;47.210;8.618;2023-06-14T06:12:33;93696.09;;;27.14;23.89
70902;BME280;58548;47.210;8.618;2023-06-14T06:15:01;93688.38;;;27.35;22.05
70902;BME280;58548;47.210;8.618;2023-06-14T06:17:27;93670.56;;;27.53;22.60
70902;BME280;58548;47.210;8.618;2023-06-14T06:19:54;93703.81;;;28.07;22.48
70902;BME280;58548;47.210;8.618;2023-06-14T06:22:22;93699.34;;;28.42;22.10
70902;BME280;58548;47.210;8.618;2023-06-14T06:24:49;93715.13;;;28.84;21.06
70902;BME280;58548;47.210;8.618;2023-06-14T06:27:17;93693.31;;;28.86;21.04
70902;BME280;58548;47.210;8.618;2023-06-14T06:29:45;93672.75;;;28.90;20.54
70902;BME280;58548;47.210;8.618;2023-06-14T06:32:15;93708.03;;;29.32;19.75
70902;BME280;58548;47.210;8.618;2023-06-14T06:34:43;93727.63;;;29.68;20.91
70902;BME280;58548;47.210;8.618;2023-06-14T06:37:12;93720.00;;;29.97;20.30
70902;BME280;58548;47.210;8.618;2023-06-14T06:39:38;93699.69;;;30.08;19.34
70902;BME280;58548;47.210;8.618;2023-06-14T06:42:04;93737.53;;;30.50;19.61
70902;BME280;58548;47.210;8.618;2023-06-14T06:44:33;93668.31;;;30.42;19.61
70902;BME280;58548;47.210;8.618;2023-06-14T06:46:59;93726.38;;;31.21;18.36
70902;BME280;58548;47.210;8.618;2023-06-14T06:49:25;93734.69;;;31.49;18.30
70902;BME280;58548;47.210;8.618;2023-06-14T06:52:02;93730.81;;;31.80;17.83
70902;BME280;58548;47.210;8.618;2023-06-14T06:54:30;93696.63;;;31.63;17.95
70902;BME280;58548;47.210;8.618;2023-06-14T06:56:59;93729.34;;;31.83;17.25
70902;BME280;58548;47.210;8.618;2023-06-14T06:59:25;93739.16;;;31.87;16.98
70902;BME280;58548;47.210;8.618;2023-06-14T07:01:51;93702.88;;;31.76;17.21
70902;BME280;58548;47.210;8.618;2023-06-14T07:04:17;93749.63;;;32.01;16.53
70902;BME280;58548;47.210;8.618;2023-06-14T07:06:46;93713.78;;;31.80;17.50
70902;BME280;58548;47.210;8.618;2023-06-14T07:09:12;93743.59;;;32.17;16.54
70902;BME280;58548;47.210;8.618;2023-06-14T07:11:40;93752.16;;;32.19;16.30
70902;BME280;58548;47.210;8.618;2023-06-14T07:14:06;93727.56;;;31.99;16.10
70902;BME280;58548;47.210;8.618;2023-06-14T07:16:32;93716.34;;;32.10;16.71
70902;BME280;58548;47.210;8.618;2023-06-14T07:18:58;93751.75;;;32.29;15.52
70902;BME280;58548;47.210;8.618;2023-06-14T07:21:24;93755.28;;;32.21;15.76
70902;BME280;58548;47.210;8.618;2023-06-14T07:23:56;93758.91;;;32.25;16.55
70902;BME280;58548;47.210;8.618;2023-06-14T07:26:22;93717.00;;;32.07;16.10
70902;BME280;58548;47.210;8.618;2023-06-14T07:28:49;93731.78;;;32.09;16.64
70902;BME280;58548;47.210;8.618;2023-06-14T07:31:21;93729.50;;;32.11;17.01
70902;BME280;58548;47.210;8.618;2023-06-14T07:33:47;93723.69;;;32.09;16.38
70902;BME280;58548;47.210;8.618;2023-06-14T07:36:13;93736.34;;;32.30;15.87
70902;BME280;58548;47.210;8.618;2023-06-14T07:38:38;93741.41;;;32.56;16.07
70902;BME280;58548;47.210;8.618;2023-06-14T07:41:06;93760.22;;;33.02;16.34
70902;BME280;58548;47.210;8.618;2023-06-14T07:43:32;93728.28;;;33.20;16.14
70902;BME280;58548;47.210;8.618;2023-06-14T07:45:58;93762.91;;;33.68;15.16
70902;BME280;58548;47.210;8.618;2023-06-14T07:48:24;93751.97;;;33.93;15.78
70902;BME280;58548;47.210;8.618;2023-06-14T07:50:50;93740.28;;;34.21;13.77
70902;BME280;58548;47.210;8.618;2023-06-14T07:53:16;93747.41;;;34.73;15.19
70902;BME280;58548;47.210;8.618;2023-06-14T07:55:42;93755.50;;;35.06;13.63
70902;BME280;58548;47.210;8.618;2023-06-14T07:58:12;93722.66;;;35.11;12.79
70902;BME280;58548;47.210;8.618;2023-06-14T08:00:40;93749.44;;;35.48;14.05
70902;BME280;58548;47.210;8.618;2023-06-14T08:03:06;93766.31;;;35.97;12.85
70902;BME280;58548;47.210;8.618;2023-06-14T08:05:35;93741.53;;;36.21;13.58
70902;BME280;58548;47.210;8.618;2023-06-14T08:08:04;93760.00;;;36.59;13.08
70902;BME280;58548;47.210;8.618;2023-06-14T08:10:30;93767.88;;;36.91;12.40
70902;BME280;58548;47.210;8.618;2023-06-14T08:12:55;93766.44;;;37.24;12.76
70902;BME280;58548;47.210;8.618;2023-06-14T08:15:23;93729.91;;;37.25;11.95
70902;BME280;58548;47.210;8.618;2023-06-14T08:17:52;93759.88;;;37.55;11.89
70902;BME280;58548;47.210;8.618;2023-06-14T08:20:18;93755.19;;;37.56;11.81
70902;BME280;58548;47.210;8.618;2023-06-14T08:22:44;93760.47;;;37.76;11.55
70902;BME280;58548;47.210;8.618;2023-06-14T08:25:12;93769.09;;;38.12;11.21
70902;BME280;58548;47.210;8.618;2023-06-14T08:27:39;93768.88;;;38.31;10.39
70902;BME280;58548;47.210;8.618;2023-06-14T08:30:08;93767.25;;;38.23;10.22
70902;BME280;58548;47.210;8.618;2023-06-14T08:32:34;93783.91;;;38.52;10.58
70902;BME280;58548;47.210;8.618;2023-06-14T08:35:02;93763.66;;;38.53;11.04
70902;BME280;58548;47.210;8.618;2023-06-14T08:37:28;93775.50;;;38.75;11.02
70902;BME280;58548;47.210;8.618;2023-06-14T08:39:57;93787.03;;;38.99;10.18
70902;BME280;58548;47.210;8.618;2023-06-14T08:42:25;93733.41;;;38.73;10.62
70902;BME280;58548;47.210;8.618;2023-06-14T08:44:51;93758.97;;;39.06;10.89
70902;BME280;58548;47.210;8.618;2023-06-14T08:47:23;93759.09;;;39.28;10.54
70902;BME280;58548;47.210;8.618;2023-06-14T08:49:57;93764.72;;;39.53;10.11
70902;BME280;58548;47.210;8.618;2023-06-14T08:52:29;93753.81;;;39.64;10.70
70902;BME280;58548;47.210;8.618;2023-06-14T08:55:00;93779.34;;;40.04;10.17
70902;BME280;58548;47.210;8.618;2023-06-14T08:57:30;93741.50;;;40.10;10.17
70902;BME280;58548;47.210;8.618;2023-06-14T09:00:02;93787.66;;;40.48;9.39
70902;BME280;58548;47.210;8.618;2023-06-14T09:02:37;93765.78;;;40.40;9.48
70902;BME280;58548;47.210;8.618;2023-06-14T09:05:04;93768.97;;;40.68;10.03
70902;BME280;58548;47.210;8.618;2023-06-14T09:07:30;93797.88;;;41.02;9.07
70902;BME280;58548;47.210;8.618;2023-06-14T09:10:15;93761.88;;;41.14;9.52
70902;BME280;58548;47.210;8.618;2023-06-14T09:12:43;93773.56;;;41.40;8.48
70902;BME280;58548;47.210;8.618;2023-06-14T09:15:09;93786.88;;;41.52;8.10
70902;BME280;58548;47.210;8.618;2023-06-14T09:17:38;93760.28;;;41.35;7.95
70902;BME280;58548;47.210;8.618;2023-06-14T09:20:08;93759.50;;;41.41;8.33
70902;BME280;58548;47.210;8.618;2023-06-14T09:22:44;93789.56;;;41.67;7.78
70902;BME280;58548;47.210;8.618;2023-06-14T09:25:10;93770.41;;;41.59;8.06
70902;BME280;58548;47.210;8.618;2023-06-14T09:27:38;93782.50;;;41.73;8.12
70902;BME280;58548;47.210;8.618;2023-06-14T09:30:10;93782.44;;;41.80;8.37
70902;BME280;58548;47.210;8.618;2023-06-14T09:32:37;93772.72;;;41.72;7.55
70902;BME280;58548;47.210;8.618;2023-06-14T09:35:08;93790.66;;;41.95;8.11
70902;BME280;58548;47.210;8.618;2023-06-14T09:37:35;93788.22;;;42.11;7.80
70902;BME280;58548;47.210;8.618;2023-06-14T09:40:05;93795.59;;;42.25;7.09
70902;BME280;58548;47.210;8.618;2023-06-14T09:42:33;93746.75;;;41.91;7.85
70902;BME280;58548;47.210;8.618;2023-06-14T09:45:08;93778.69;;;42.34;7.89
70902;BME280;58548;47.210;8.618;2023-06-14T09:47:36;93808.28;;;42.61;7.91
70902;BME280;58548;47.210;8.618;2023-06-14T09:50:02;93787.25;;;42.43;7.67
70902;BME280;58548;47.210;8.618;2023-06-14T09:52:30;93784.16;;;42.34;7.79
70902;BME280;58548;47.210;8.618;2023-06-14T09:55:01;93772.88;;;42.21;7.01
70902;BME280;58548;47.210;8.618;2023-06-14T09:57:33;93806.06;;;42.41;7.93
70902;BME280;58548;47.210;8.618;2023-06-14T10:00:07;93790.44;;;42.31;7.27
70902;BME280;58548;47.210;8.618;2023-06-14T10:02:38;93790.13;;;42.18;7.61
70902;BME280;58548;47.210;8.618;2023-06-14T10:05:19;93795.53;;;42.36;7.38
70902;BME280;58548;47.210;8.618;2023-06-14T10:07:53;93772.03;;;42.28;7.40
70902;BME280;58548;47.210;8.618;2023-06-14T10:10:19;93762.97;;;42.38;7.23
70902;BME280;58548;47.210;8.618;2023-06-14T10:12:49;93793.88;;;42.49;6.89
70902;BME280;58548;47.210;8.618;2023-06-14T10:21:22;93791.81;;;42.61;6.62
70902;BME280;58548;47.210;8.618;2023-06-14T10:23:51;93725.75;;;42.33;7.14
70902;BME280;58548;47.210;8.618;2023-06-14T10:26:23;93783.94;;;42.70;6.11
70902;BME280;58548;47.210;8.618;2023-06-14T10:29:07;93792.44;;;42.87;7.04
70902;BME280;58548;47.210;8.618;2023-06-14T10:31:45;93779.91;;;42.86;6.17
70902;BME280;58548;47.210;8.618;2023-06-14T10:34:12;93769.72;;;42.83;6.50
70902;BME280;58548;47.210;8.618;2023-06-14T10:36:42;93759.53;;;42.79;6.48
70902;BME280;58548;47.210;8.618;2023-06-14T10:39:17;93770.03;;;42.92;6.58
70902;BME280;58548;47.210;8.618;2023-06-14T10:41:54;93765.47;;;42.71;6.14
70902;BME280;58548;47.210;8.618;2023-06-14T10:49:19;93779.19;;;42.71;7.38
70902;BME280;58548;47.210;8.618;2023-06-14T10:51:50;93738.44;;;42.69;7.51
70902;BME280;58548;47.210;8.618;2023-06-14T10:54:20;93772.66;;;43.06;6.81
70902;BME280;58548;47.210;8.618;2023-06-14T10:56:48;93744.44;;;43.02;6.41
70902;BME280;58548;47.210;8.618;2023-06-14T10:59:15;93753.28;;;43.21;6.52
70902;BME280;58548;47.210;8.618;2023-06-14T11:04:50;93736.72;;;42.90;6.37
70902;BME280;58548;47.210;8.618;2023-06-14T11:13:03;93764.94;;;42.94;6.38
70902;BME280;58548;47.210;8.618;2023-06-14T11:15:30;93754.59;;;42.60;7.39
70902;BME280;58548;47.210;8.618;2023-06-14T11:17:57;93756.66;;;42.48;7.23
70902;BME280;58548;47.210;8.618;2023-06-14T11:20:30;93748.53;;;42.27;6.81
70902;BME280;58548;47.210;8.618;2023-06-14T11:22:56;93749.81;;;42.08;7.39
70902;BME280;58548;47.210;8.618;2023-06-14T11:25:22;93738.66;;;41.73;7.44
70902;BME280;58548;47.210;8.618;2023-06-14T11:27:52;93738.72;;;41.51;7.45
70902;BME280;58548;47.210;8.618;2023-06-14T11:30:20;93757.16;;;41.36;7.41
70902;BME280;58548;47.210;8.618;2023-06-14T11:32:53;93744.28;;;41.00;7.66
70902;BME280;58548;47.210;8.618;2023-06-14T11:35:24;93766.63;;;40.88;6.80
70902;BME280;58548;47.210;8.618;2023-06-14T11:37:57;93766.91;;;40.18;7.65
70902;BME280;58548;47.210;8.618;2023-06-14T11:40:27;93771.91;;;39.94;7.38
70902;BME280;58548;47.210;8.618;2023-06-14T11:43:00;93723.69;;;39.35;7.37
70902;BME280;58548;47.210;8.618;2023-06-14T11:45:29;93734.13;;;39.22;7.88
70902;BME280;58548;47.210;8.618;2023-06-14T11:47:57;93752.16;;;39.34;8.89
70902;BME280;58548;47.210;8.618;2023-06-14T11:50:23;93742.72;;;39.28;8.86
70902;BME280;58548;47.210;8.618;2023-06-14T11:52:58;93760.75;;;39.36;8.38
70902;BME280;58548;47.210;8.618;2023-06-14T11:55:26;93758.78;;;39.33;8.72
70902;BME280;58548;47.210;8.618;2023-06-14T11:57:55;93749.72;;;39.25;9.11
70902;BME280;58548;47.210;8.618;2023-06-14T12:00:26;93761.03;;;39.24;9.09
70902;BME280;58548;47.210;8.618;2023-06-14T12:02:57;93750.44;;;39.15;8.74
70902;BME280;58548;47.210;8.618;2023-06-14T12:05:25;93759.44;;;39.19;8.81
70902;BME280;58548;47.210;8.618;2023-06-14T12:08:02;93708.56;;;38.85;8.69
70902;BME280;58548;47.210;8.618;2023-06-14T12:10:29;93713.16;;;38.78;8.43
70902;BME280;58548;47.210;8.618;2023-06-14T12:12:58;93744.84;;;38.89;8.24
70902;BME280;58548;47.210;8.618;2023-06-14T12:15:28;93743.47;;;38.65;9.40
70902;BME280;58548;47.210;8.618;2023-06-14T12:17:55;93742.28;;;38.63;9.14
70902;BME280;58548;47.210;8.618;2023-06-14T12:20:29;93740.66;;;38.54;8.84
70902;BME280;58548;47.210;8.618;2023-06-14T12:23:03;93732.66;;;38.35;8.79
70902;BME280;58548;47.210;8.618;2023-06-14T12:25:33;93716.91;;;38.13;8.50
70902;BME280;58548;47.210;8.618;2023-06-14T12:28:06;93743.56;;;38.35;8.48
70902;BME280;58548;47.210;8.618;2023-06-14T12:30:33;93744.34;;;38.31;8.96
70902;BME280;58548;47.210;8.618;2023-06-14T12:33:03;93750.56;;;38.32;8.74
70902;BME280;58548;47.210;8.618;2023-06-14T12:35:29;93725.50;;;38.15;9.05
70902;BME280;58548;47.210;8.618;2023-06-14T12:37:55;93752.13;;;38.33;8.33
70902;BME280;58548;47.210;8.618;2023-06-14T12:40:23;93748.25;;;38.34;9.05
70902;BME280;58548;47.210;8.618;2023-06-14T12:42:49;93737.25;;;38.23;9.01
70902;BME280;58548;47.210;8.618;2023-06-14T12:45:15;93740.19;;;38.04;9.46
70902;BME280;58548;47.210;8.618;2023-06-14T12:47:47;93728.16;;;37.74;9.04
70902;BME280;58548;47.210;8.618;2023-06-14T12:50:13;93742.31;;;37.87;10.32
70902;BME280;58548;47.210;8.618;2023-06-14T12:52:41;93730.28;;;37.88;9.69
70902;BME280;58548;47.210;8.618;2023-06-14T12:55:08;93737.66;;;37.87;9.09
70902;BME280;58548;47.210;8.618;2023-06-14T12:57:34;93733.75;;;37.85;9.50
70902;BME280;58548;47.210;8.618;2023-06-14T13:00:02;93735.38;;;37.93;9.64
70902;BME280;58548;47.210;8.618;2023-06-14T13:02:28;93713.41;;;37.79;9.22
70902;BME280;58548;47.210;8.618;2023-06-14T13:04:59;93743.50;;;37.90;9.02
70902;BME280;58548;47.210;8.618;2023-06-14T13:07:26;93751.47;;;37.71;9.25
70902;BME280;58548;47.210;8.618;2023-06-14T13:09:52;93756.53;;;37.69;9.49
70902;BME280;58548;47.210;8.618;2023-06-14T13:12:18;93732.25;;;37.26;9.27
70902;BME280;58548;47.210;8.618;2023-06-14T13:14:43;93749.88;;;37.36;9.76
70902;BME280;58548;47.210;8.618;2023-06-14T13:17:10;93732.91;;;37.16;9.43
70902;BME280;58548;47.210;8.618;2023-06-14T13:19:39;93755.72;;;37.38;10.33
70902;BME280;58548;47.210;8.618;2023-06-14T13:22:07;93736.53;;;37.27;9.77
70902;BME280;58548;47.210;8.618;2023-06-14T13:24:36;93743.69;;;37.09;8.99
70902;BME280;58548;47.210;8.618;2023-06-14T13:27:03;93756.97;;;37.14;9.77
70902;BME280;58548;47.210;8.618;2023-06-14T13:29:32;93742.50;;;37.06;9.31
70902;BME280;58548;47.210;8.618;2023-06-14T13:32:08;93745.56;;;37.05;10.18